sensor_id;sensor_type;location;lat;lon;timestamp;P1;durP1;ratioP1;P2;durP2;ratioP2
67889;SDS011;54685;52.082;5.426;2022-08-19T00:01:33;3.40;;;3.20;;
67889;SDS011;54685;52.082;5.426;2022-08-19T00:04:05;6.40;;;3.70;;
67889;SDS011;54685;52.082;5.426;2022-08-19T00:06:34;4.47;;;3.40;;
67889;SDS011;54685;52.082;5.426;2022-08-19T00:09:04;5.35;;;3.33;;
67889;SDS011;54685;52.082;5.426;2022-08-19T00:11:32;4.68;;;3.13;;
67889;SDS011;54685;52.082;5.426;2022-08-19T00:14:02;3.83;;;3.53;;
67889;SDS011;54685;52.082;5.426;2022-08-19T00:16:29;4.47;;;3.50;;
67889;SDS011;54685;52.082;5.426;2022-08-19T00:18:55;4.90;;;3.45;;
67889;SDS011;54685;52.082;5.426;2022-08-19T00:21:23;5.22;;;3.40;;
67889;SDS011;54685;52.082;5.426;2022-08-19T00:23:51;3.30;;;3.03;;
67889;SDS011;54685;52.082;5.426;2022-08-19T00:26:18;4.75;;;2.92;;
67889;SDS011;54685;52.082;5.426;2022-08-19T00:28:45;8.40;;;3.40;;
67889;SDS011;54685;52.082;5.426;2022-08-19T00:31:13;4.20;;;3.20;;
67889;SDS011;54685;52.082;5.426;2022-08-19T00:33:40;3.35;;;3.05;;
67889;SDS011;54685;52.082;5.426;2022-08-19T00:36:07;4.68;;;2.80;;
67889;SDS011;54685;52.082;5.426;2022-08-19T00:38:36;3.22;;;2.78;;
67889;SDS011;54685;52.082;5.426;2022-08-19T00:41:13;3.08;;;2.83;;
67889;SDS011;54685;52.082;5.426;2022-08-19T00:46:08;4.57;;;2.85;;
67889;SDS011;54685;52.082;5.426;2022-08-19T00:48:35;3.97;;;2.63;;
67889;SDS011;54685;52.082;5.426;2022-08-19T00:51:03;3.45;;;3.15;;
67889;SDS011;54685;52.082;5.426;2022-08-19T00:53:32;4.25;;;3.10;;
67889;SDS011;54685;52.082;5.426;2022-08-19T00:56:00;3.45;;;3.10;;
67889;SDS011;54685;52.082;5.426;2022-08-19T00:58:30;3.38;;;3.08;;
67889;SDS011;54685;52.082;5.426;2022-08-19T01:00:59;3.08;;;2.70;;
67889;SDS011;54685;52.082;5.426;2022-08-19T01:03:27;8.93;;;3.42;;
67889;SDS011;54685;52.082;5.426;2022-08-19T01:06:15;3.92;;;3.47;;
67889;SDS011;54685;52.082;5.426;2022-08-19T01:08:46;3.83;;;3.33;;
67889;SDS011;54685;52.082;5.426;2022-08-19T01:11:15;3.42;;;3.22;;
67889;SDS011;54685;52.082;5.426;2022-08-19T01:13:42;3.60;;;3.13;;
67889;SDS011;54685;52.082;5.426;2022-08-19T01:16:15;4.45;;;3.17;;
67889;SDS011;54685;52.082;5.426;2022-08-19T01:18:45;5.43;;;3.20;;
67889;SDS011;54685;52.082;5.426;2022-08-19T01:21:16;3.60;;;3.30;;
67889;SDS011;54685;52.082;5.426;2022-08-19T01:23:58;3.42;;;2.83;;
67889;SDS011;54685;52.082;5.426;2022-08-19T01:26:25;3.38;;;3.15;;
67889;SDS011;54685;52.082;5.426;2022-08-19T01:28:55;7.05;;;3.33;;
67889;SDS011;54685;52.082;5.426;2022-08-19T01:31:27;5.65;;;3.10;;
67889;SDS011;54685;52.082;5.426;2022-08-19T01:33:58;3.25;;;3.05;;
67889;SDS011;54685;52.082;5.426;2022-08-19T01:39:00;3.00;;;2.40;;
67889;SDS011;54685;52.082;5.426;2022-08-19T01:41:31;2.35;;;2.15;;
67889;SDS011;54685;52.082;5.426;2022-08-19T01:43:58;2.50;;;2.28;;
67889;SDS011;54685;52.082;5.426;2022-08-19T01:46:43;4.13;;;2.30;;
67889;SDS011;54685;52.082;5.426;2022-08-19T01:49:10;2.53;;;2.20;;
67889;SDS011;54685;52.082;5.426;2022-08-19T01:51:37;3.05;;;2.20;;
67889;SDS011;54685;52.082;5.426;2022-08-19T01:54:06;4.75;;;2.60;;
67889;SDS011;54685;52.082;5.426;2022-08-19T01:56:34;2.70;;;2.47;;
67889;SDS011;54685;52.082;5.426;2022-08-19T01:59:02;3.78;;;3.47;;
67889;SDS011;54685;52.082;5.426;2022-08-19T02:01:34;3.40;;;3.00;;
67889;SDS011;54685;52.082;5.426;2022-08-19T02:04:01;5.63;;;3.60;;
67889;SDS011;54685;52.082;5.426;2022-08-19T02:06:28;5.55;;;3.35;;
67889;SDS011;54685;52.082;5.426;2022-08-19T02:08:55;5.43;;;3.28;;
67889;SDS011;54685;52.082;5.426;2022-08-19T02:11:30;4.97;;;3.55;;
67889;SDS011;54685;52.082;5.426;2022-08-19T02:14:00;4.22;;;3.60;;
67889;SDS011;54685;52.082;5.426;2022-08-19T02:16:30;6.95;;;3.78;;
67889;SDS011;54685;52.082;5.426;2022-08-19T02:18:57;4.97;;;3.90;;
67889;SDS011;54685;52.082;5.426;2022-08-19T02:21:27;4.28;;;3.83;;
67889;SDS011;54685;52.082;5.426;2022-08-19T02:23:55;6.57;;;4.20;;
67889;SDS011;54685;52.082;5.426;2022-08-19T02:26:22;5.95;;;4.15;;
67889;SDS011;54685;52.082;5.426;2022-08-19T02:28:49;4.03;;;3.72;;
67889;SDS011;54685;52.082;5.426;2022-08-19T02:31:17;4.28;;;3.88;;
67889;SDS011;54685;52.082;5.426;2022-08-19T02:33:46;3.80;;;3.47;;
67889;SDS011;54685;52.082;5.426;2022-08-19T02:36:15;4.25;;;3.85;;
67889;SDS011;54685;52.082;5.426;2022-08-19T02:38:46;5.15;;;4.57;;
67889;SDS011;54685;52.082;5.426;2022-08-19T02:41:27;4.80;;;4.30;;
67889;SDS011;54685;52.082;5.426;2022-08-19T02:43:57;8.88;;;4.50;;
67889;SDS011;54685;52.082;5.426;2022-08-19T02:46:47;4.65;;;4.30;;
67889;SDS011;54685;52.082;5.426;2022-08-19T02:49:17;8.25;;;4.60;;
67889;SDS011;54685;52.082;5.426;2022-08-19T02:51:45;5.28;;;4.47;;
67889;SDS011;54685;52.082;5.426;2022-08-19T02:54:12;9.57;;;4.63;;
67889;SDS011;54685;52.082;5.426;2022-08-19T02:56:40;4.95;;;4.13;;
67889;SDS011;54685;52.082;5.426;2022-08-19T02:59:09;3.30;;;3.00;;
67889;SDS011;54685;52.082;5.426;2022-08-19T03:01:39;3.42;;;3.00;;
67889;SDS011;54685;52.082;5.426;2022-08-19T03:04:08;2.53;;;2.33;;
67889;SDS011;54685;52.082;5.426;2022-08-19T03:06:40;4.30;;;2.80;;
67889;SDS011;54685;52.082;5.426;2022-08-19T03:09:09;4.93;;;2.88;;
67889;SDS011;54685;52.082;5.426;2022-08-19T03:11:37;3.13;;;2.90;;
67889;SDS011;54685;52.082;5.426;2022-08-19T03:14:04;3.92;;;2.78;;
67889;SDS011;54685;52.082;5.426;2022-08-19T03:16:33;4.55;;;3.00;;
67889;SDS011;54685;52.082;5.426;2022-08-19T03:19:05;6.68;;;3.30;;
67889;SDS011;54685;52.082;5.426;2022-08-19T03:21:32;4.82;;;2.67;;
67889;SDS011;54685;52.082;5.426;2022-08-19T03:24:01;5.88;;;2.50;;
67889;SDS011;54685;52.082;5.426;2022-08-19T03:26:31;2.75;;;2.50;;
67889;SDS011;54685;52.082;5.426;2022-08-19T03:29:00;7.38;;;3.08;;
67889;SDS011;54685;52.082;5.426;2022-08-19T03:31:31;6.80;;;3.45;;
67889;SDS011;54685;52.082;5.426;2022-08-19T03:34:21;5.05;;;4.47;;
67889;SDS011;54685;52.082;5.426;2022-08-19T03:36:54;7.10;;;5.43;;
67889;SDS011;54685;52.082;5.426;2022-08-19T03:39:22;5.35;;;4.85;;
67889;SDS011;54685;52.082;5.426;2022-08-19T03:41:51;7.63;;;6.95;;
67889;SDS011;54685;52.082;5.426;2022-08-19T03:44:38;9.43;;;7.93;;
67889;SDS011;54685;52.082;5.426;2022-08-19T03:47:05;10.23;;;9.30;;
67889;SDS011;54685;52.082;5.426;2022-08-19T03:49:32;11.65;;;10.60;;
67889;SDS011;54685;52.082;5.426;2022-08-19T03:52:02;14.63;;;12.25;;
67889;SDS011;54685;52.082;5.426;2022-08-19T03:54:31;13.68;;;11.02;;
67889;SDS011;54685;52.082;5.426;2022-08-19T03:56:58;11.73;;;10.40;;
67889;SDS011;54685;52.082;5.426;2022-08-19T03:59:32;11.38;;;10.30;;
67889;SDS011;54685;52.082;5.426;2022-08-19T04:02:05;20.05;;;10.60;;
67889;SDS011;54685;52.082;5.426;2022-08-19T04:04:38;43.78;;;11.02;;
67889;SDS011;54685;52.082;5.426;2022-08-19T04:07:06;17.67;;;11.20;;
67889;SDS011;54685;52.082;5.426;2022-08-19T04:09:33;17.13;;;11.20;;
67889;SDS011;54685;52.082;5.426;2022-08-19T04:12:03;17.02;;;10.10;;
67889;SDS011;54685;52.082;5.426;2022-08-19T04:14:31;152.32;;;12.68;;
67889;SDS011;54685;52.082;5.426;2022-08-19T04:17:00;36.38;;;11.32;;
67889;SDS011;54685;52.082;5.426;2022-08-19T04:19:29;13.90;;;12.40;;
67889;SDS011;54685;52.082;5.426;2022-08-19T04:21:57;18.70;;;12.05;;
67889;SDS011;54685;52.082;5.426;2022-08-19T04:24:24;70.72;;;12.82;;
67889;SDS011;54685;52.082;5.426;2022-08-19T04:26:51;16.05;;;13.50;;
67889;SDS011;54685;52.082;5.426;2022-08-19T04:29:19;14.10;;;12.75;;
67889;SDS011;54685;52.082;5.426;2022-08-19T04:31:48;13.07;;;11.77;;
67889;SDS011;54685;52.082;5.426;2022-08-19T04:34:17;12.88;;;11.57;;
67889;SDS011;54685;52.082;5.426;2022-08-19T04:36:49;11.48;;;10.38;;
67889;SDS011;54685;52.082;5.426;2022-08-19T04:39:19;12.90;;;11.50;;
67889;SDS011;54685;52.082;5.426;2022-08-19T04:41:49;11.43;;;10.32;;
67889;SDS011;54685;52.082;5.426;2022-08-19T04:44:34;9.70;;;8.80;;
67889;SDS011;54685;52.082;5.426;2022-08-19T04:47:11;11.57;;;9.90;;
67889;SDS011;54685;52.082;5.426;2022-08-19T04:49:38;11.80;;;10.70;;
67889;SDS011;54685;52.082;5.426;2022-08-19T04:52:05;12.48;;;10.57;;
67889;SDS011;54685;52.082;5.426;2022-08-19T04:54:32;13.73;;;12.23;;
67889;SDS011;54685;52.082;5.426;2022-08-19T04:59:37;13.07;;;11.38;;
67889;SDS011;54685;52.082;5.426;2022-08-19T05:02:06;13.50;;;12.13;;
67889;SDS011;54685;52.082;5.426;2022-08-19T05:04:34;14.70;;;12.38;;
67889;SDS011;54685;52.082;5.426;2022-08-19T05:07:05;15.73;;;13.02;;
67889;SDS011;54685;52.082;5.426;2022-08-19T05:09:33;13.55;;;12.25;;
67889;SDS011;54685;52.082;5.426;2022-08-19T05:12:20;10.95;;;9.85;;
67889;SDS011;54685;52.082;5.426;2022-08-19T05:14:54;12.63;;;11.35;;
67889;SDS011;54685;52.082;5.426;2022-08-19T05:17:23;12.63;;;10.70;;
67889;SDS011;54685;52.082;5.426;2022-08-19T05:19:55;24.33;;;12.27;;
67889;SDS011;54685;52.082;5.426;2022-08-19T05:22:41;11.65;;;10.55;;
67889;SDS011;54685;52.082;5.426;2022-08-19T05:25:10;14.82;;;11.88;;
67889;SDS011;54685;52.082;5.426;2022-08-19T05:27:46;16.55;;;13.07;;
67889;SDS011;54685;52.082;5.426;2022-08-19T05:30:13;13.30;;;11.98;;
67889;SDS011;54685;52.082;5.426;2022-08-19T05:32:41;18.27;;;13.68;;
67889;SDS011;54685;52.082;5.426;2022-08-19T05:35:10;15.52;;;13.23;;
67889;SDS011;54685;52.082;5.426;2022-08-19T05:37:37;13.40;;;12.02;;
67889;SDS011;54685;52.082;5.426;2022-08-19T05:40:06;12.63;;;11.32;;
67889;SDS011;54685;52.082;5.426;2022-08-19T05:42:33;14.05;;;12.55;;
67889;SDS011;54685;52.082;5.426;2022-08-19T05:45:01;12.48;;;11.15;;
67889;SDS011;54685;52.082;5.426;2022-08-19T05:47:28;13.13;;;11.38;;
67889;SDS011;54685;52.082;5.426;2022-08-19T05:49:55;17.17;;;14.25;;
67889;SDS011;54685;52.082;5.426;2022-08-19T05:52:22;18.88;;;13.82;;
67889;SDS011;54685;52.082;5.426;2022-08-19T05:54:51;15.52;;;12.60;;
67889;SDS011;54685;52.082;5.426;2022-08-19T05:57:21;17.25;;;13.45;;
67889;SDS011;54685;52.082;5.426;2022-08-19T05:59:48;19.88;;;15.52;;
67889;SDS011;54685;52.082;5.426;2022-08-19T06:02:23;24.45;;;16.10;;
67889;SDS011;54685;52.082;5.426;2022-08-19T06:04:54;23.95;;;17.40;;
67889;SDS011;54685;52.082;5.426;2022-08-19T06:07:20;27.88;;;18.98;;
67889;SDS011;54685;52.082;5.426;2022-08-19T06:09:47;23.65;;;19.00;;
67889;SDS011;54685;52.082;5.426;2022-08-19T06:12:27;30.20;;;21.38;;
67889;SDS011;54685;52.082;5.426;2022-08-19T06:14:58;30.85;;;22.67;;
67889;SDS011;54685;52.082;5.426;2022-08-19T06:17:30;33.53;;;24.45;;
67889;SDS011;54685;52.082;5.426;2022-08-19T06:19:58;39.40;;;25.88;;
67889;SDS011;54685;52.082;5.426;2022-08-19T06:22:27;35.00;;;26.20;;
67889;SDS011;54685;52.082;5.426;2022-08-19T06:24:54;40.38;;;26.38;;
67889;SDS011;54685;52.082;5.426;2022-08-19T06:27:22;44.10;;;28.17;;
67889;SDS011;54685;52.082;5.426;2022-08-19T06:29:49;45.90;;;30.20;;
67889;SDS011;54685;52.082;5.426;2022-08-19T06:32:17;49.80;;;33.95;;
67889;SDS011;54685;52.082;5.426;2022-08-19T06:34:47;57.58;;;34.92;;
67889;SDS011;54685;52.082;5.426;2022-08-19T06:37:14;61.60;;;37.22;;
67889;SDS011;54685;52.082;5.426;2022-08-19T06:39:42;54.17;;;36.47;;
67889;SDS011;54685;52.082;5.426;2022-08-19T06:42:10;53.42;;;35.88;;
67889;SDS011;54685;52.082;5.426;2022-08-19T06:44:40;56.42;;;38.13;;
67889;SDS011;54685;52.082;5.426;2022-08-19T06:47:16;63.63;;;40.58;;
67889;SDS011;54685;52.082;5.426;2022-08-19T06:49:52;65.25;;;41.30;;
67889;SDS011;54685;52.082;5.426;2022-08-19T06:52:26;70.78;;;41.42;;
67889;SDS011;54685;52.082;5.426;2022-08-19T06:54:53;66.00;;;38.97;;
67889;SDS011;54685;52.082;5.426;2022-08-19T06:57:25;67.77;;;41.03;;
67889;SDS011;54685;52.082;5.426;2022-08-19T06:59:52;72.93;;;43.05;;
67889;SDS011;54685;52.082;5.426;2022-08-19T07:02:20;70.25;;;37.08;;
67889;SDS011;54685;52.082;5.426;2022-08-19T07:04:47;63.92;;;39.83;;
67889;SDS011;54685;52.082;5.426;2022-08-19T07:07:18;60.95;;;39.28;;
67889;SDS011;54685;52.082;5.426;2022-08-19T07:09:47;66.10;;;40.50;;
67889;SDS011;54685;52.082;5.426;2022-08-19T07:12:26;60.92;;;37.90;;
67889;SDS011;54685;52.082;5.426;2022-08-19T07:14:55;61.67;;;37.63;;
67889;SDS011;54685;52.082;5.426;2022-08-19T07:17:23;54.88;;;37.33;;
67889;SDS011;54685;52.082;5.426;2022-08-19T07:19:51;63.97;;;41.47;;
67889;SDS011;54685;52.082;5.426;2022-08-19T07:22:20;56.60;;;35.92;;
67889;SDS011;54685;52.082;5.426;2022-08-19T07:24:50;60.17;;;38.50;;
67889;SDS011;54685;52.082;5.426;2022-08-19T07:27:20;55.55;;;36.05;;
67889;SDS011;54685;52.082;5.426;2022-08-19T07:29:51;60.15;;;38.95;;
67889;SDS011;54685;52.082;5.426;2022-08-19T07:32:24;60.50;;;38.65;;
67889;SDS011;54685;52.082;5.426;2022-08-19T07:34:52;51.80;;;34.88;;
67889;SDS011;54685;52.082;5.426;2022-08-19T07:37:21;54.15;;;36.65;;
67889;SDS011;54685;52.082;5.426;2022-08-19T07:39:49;58.50;;;37.67;;
67889;SDS011;54685;52.082;5.426;2022-08-19T07:42:15;48.40;;;33.58;;
67889;SDS011;54685;52.082;5.426;2022-08-19T07:44:44;53.92;;;36.53;;
67889;SDS011;54685;52.082;5.426;2022-08-19T07:50:03;49.38;;;33.45;;
67889;SDS011;54685;52.082;5.426;2022-08-19T07:52:33;49.67;;;34.63;;
67889;SDS011;54685;52.082;5.426;2022-08-19T07:55:02;56.65;;;35.30;;
67889;SDS011;54685;52.082;5.426;2022-08-19T07:57:30;56.38;;;35.63;;
67889;SDS011;54685;52.082;5.426;2022-08-19T07:59:57;45.80;;;32.20;;
67889;SDS011;54685;52.082;5.426;2022-08-19T08:02:23;56.20;;;35.75;;
67889;SDS011;54685;52.082;5.426;2022-08-19T08:04:50;51.65;;;35.13;;
67889;SDS011;54685;52.082;5.426;2022-08-19T08:07:35;47.25;;;32.83;;
67889;SDS011;54685;52.082;5.426;2022-08-19T08:10:21;41.80;;;31.17;;
67889;SDS011;54685;52.082;5.426;2022-08-19T08:12:49;42.40;;;30.98;;
67889;SDS011;54685;52.082;5.426;2022-08-19T08:15:35;45.70;;;31.25;;
67889;SDS011;54685;52.082;5.426;2022-08-19T08:18:08;48.58;;;31.23;;
67889;SDS011;54685;52.082;5.426;2022-08-19T08:20:36;38.63;;;29.23;;
67889;SDS011;54685;52.082;5.426;2022-08-19T08:23:03;44.50;;;30.75;;
67889;SDS011;54685;52.082;5.426;2022-08-19T08:25:49;39.75;;;27.38;;
67889;SDS011;54685;52.082;5.426;2022-08-19T08:28:17;34.67;;;27.40;;
67889;SDS011;54685;52.082;5.426;2022-08-19T08:30:45;34.22;;;25.50;;
67889;SDS011;54685;52.082;5.426;2022-08-19T08:33:16;37.40;;;27.17;;
67889;SDS011;54685;52.082;5.426;2022-08-19T08:36:06;35.25;;;25.00;;
67889;SDS011;54685;52.082;5.426;2022-08-19T08:38:34;32.50;;;23.42;;
67889;SDS011;54685;52.082;5.426;2022-08-19T08:43:46;31.92;;;24.23;;
67889;SDS011;54685;52.082;5.426;2022-08-19T08:46:27;36.33;;;22.75;;
67889;SDS011;54685;52.082;5.426;2022-08-19T08:49:16;30.75;;;21.85;;
67889;SDS011;54685;52.082;5.426;2022-08-19T08:51:48;32.03;;;22.40;;
67889;SDS011;54685;52.082;5.426;2022-08-19T08:54:27;34.33;;;21.50;;
67889;SDS011;54685;52.082;5.426;2022-08-19T08:57:25;29.65;;;21.75;;
67889;SDS011;54685;52.082;5.426;2022-08-19T09:00:23;25.20;;;19.95;;
67889;SDS011;54685;52.082;5.426;2022-08-19T09:02:58;26.77;;;21.15;;
67889;SDS011;54685;52.082;5.426;2022-08-19T09:11:08;63.20;;;22.88;;
67889;SDS011;54685;52.082;5.426;2022-08-19T09:17:15;24.80;;;17.73;;
67889;SDS011;54685;52.082;5.426;2022-08-19T09:19:55;27.60;;;17.73;;
67889;SDS011;54685;52.082;5.426;2022-08-19T09:22:26;26.98;;;16.98;;
67889;SDS011;54685;52.082;5.426;2022-08-19T09:24:54;19.95;;;14.80;;
67889;SDS011;54685;52.082;5.426;2022-08-19T09:27:22;24.25;;;16.27;;
67889;SDS011;54685;52.082;5.426;2022-08-19T09:30:10;30.92;;;16.45;;
67889;SDS011;54685;52.082;5.426;2022-08-19T09:32:41;25.33;;;16.25;;
67889;SDS011;54685;52.082;5.426;2022-08-19T09:35:09;24.65;;;15.52;;
67889;SDS011;54685;52.082;5.426;2022-08-19T09:37:37;19.77;;;14.13;;
67889;SDS011;54685;52.082;5.426;2022-08-19T09:40:05;21.05;;;14.75;;
67889;SDS011;54685;52.082;5.426;2022-08-19T09:42:37;30.92;;;15.52;;
67889;SDS011;54685;52.082;5.426;2022-08-19T09:45:16;25.10;;;14.68;;
67889;SDS011;54685;52.082;5.426;2022-08-19T09:47:49;20.98;;;13.45;;
67889;SDS011;54685;52.082;5.426;2022-08-19T09:50:19;21.67;;;15.40;;
67889;SDS011;54685;52.082;5.426;2022-08-19T09:52:47;19.30;;;13.68;;
67889;SDS011;54685;52.082;5.426;2022-08-19T09:55:21;21.08;;;13.70;;
67889;SDS011;54685;52.082;5.426;2022-08-19T09:57:58;26.02;;;14.05;;
67889;SDS011;54685;52.082;5.426;2022-08-19T10:00:26;33.88;;;15.82;;
67889;SDS011;54685;52.082;5.426;2022-08-19T10:02:53;24.27;;;14.05;;
67889;SDS011;54685;52.082;5.426;2022-08-19T10:05:20;24.00;;;14.68;;
67889;SDS011;54685;52.082;5.426;2022-08-19T10:08:08;23.65;;;14.10;;
67889;SDS011;54685;52.082;5.426;2022-08-19T10:10:39;21.48;;;14.40;;
67889;SDS011;54685;52.082;5.426;2022-08-19T10:13:13;22.08;;;15.43;;
67889;SDS011;54685;52.082;5.426;2022-08-19T10:15:41;20.17;;;13.15;;
67889;SDS011;54685;52.082;5.426;2022-08-19T10:18:13;19.40;;;13.63;;
67889;SDS011;54685;52.082;5.426;2022-08-19T10:20:43;24.30;;;15.27;;
67889;SDS011;54685;52.082;5.426;2022-08-19T10:23:16;18.20;;;14.23;;
67889;SDS011;54685;52.082;5.426;2022-08-19T10:25:46;16.10;;;14.40;;
67889;SDS011;54685;52.082;5.426;2022-08-19T10:28:13;17.58;;;15.55;;
67889;SDS011;54685;52.082;5.426;2022-08-19T10:30:40;20.95;;;15.15;;
67889;SDS011;54685;52.082;5.426;2022-08-19T10:33:08;19.48;;;14.90;;
67889;SDS011;54685;52.082;5.426;2022-08-19T10:35:36;19.55;;;15.88;;
67889;SDS011;54685;52.082;5.426;2022-08-19T10:38:22;21.20;;;16.42;;
67889;SDS011;54685;52.082;5.426;2022-08-19T10:40:57;26.15;;;18.05;;
67889;SDS011;54685;52.082;5.426;2022-08-19T10:43:24;21.48;;;18.00;;
67889;SDS011;54685;52.082;5.426;2022-08-19T10:45:52;26.25;;;19.73;;
67889;SDS011;54685;52.082;5.426;2022-08-19T10:48:24;28.48;;;21.88;;
67889;SDS011;54685;52.082;5.426;2022-08-19T10:50:52;27.10;;;20.55;;
67889;SDS011;54685;52.082;5.426;2022-08-19T10:53:48;27.45;;;21.40;;
67889;SDS011;54685;52.082;5.426;2022-08-19T10:56:16;27.08;;;20.70;;
67889;SDS011;54685;52.082;5.426;2022-08-19T10:59:02;26.25;;;20.80;;
67889;SDS011;54685;52.082;5.426;2022-08-19T11:01:30;29.48;;;23.80;;
67889;SDS011;54685;52.082;5.426;2022-08-19T11:04:03;29.38;;;23.77;;
67889;SDS011;54685;52.082;5.426;2022-08-19T11:06:31;27.05;;;21.50;;
67889;SDS011;54685;52.082;5.426;2022-08-19T11:08:58;28.40;;;23.27;;
67889;SDS011;54685;52.082;5.426;2022-08-19T11:11:26;29.48;;;23.73;;
67889;SDS011;54685;52.082;5.426;2022-08-19T11:13:54;28.70;;;22.63;;
67889;SDS011;54685;52.082;5.426;2022-08-19T11:16:23;29.17;;;23.92;;
67889;SDS011;54685;52.082;5.426;2022-08-19T11:18:52;32.78;;;25.00;;
67889;SDS011;54685;52.082;5.426;2022-08-19T11:21:25;28.08;;;23.02;;
67889;SDS011;54685;52.082;5.426;2022-08-19T11:24:01;30.90;;;24.08;;
67889;SDS011;54685;52.082;5.426;2022-08-19T11:26:37;37.88;;;26.63;;
67889;SDS011;54685;52.082;5.426;2022-08-19T11:29:06;29.08;;;24.60;;
67889;SDS011;54685;52.082;5.426;2022-08-19T11:31:38;33.33;;;25.25;;
67889;SDS011;54685;52.082;5.426;2022-08-19T11:34:08;30.60;;;24.80;;
67889;SDS011;54685;52.082;5.426;2022-08-19T11:36:40;28.20;;;21.60;;
67889;SDS011;54685;52.082;5.426;2022-08-19T11:39:09;36.78;;;25.92;;
67889;SDS011;54685;52.082;5.426;2022-08-19T11:41:37;29.52;;;24.50;;
67889;SDS011;54685;52.082;5.426;2022-08-19T11:44:04;30.75;;;23.55;;
67889;SDS011;54685;52.082;5.426;2022-08-19T11:46:34;32.47;;;24.00;;
67889;SDS011;54685;52.082;5.426;2022-08-19T11:49:03;31.02;;;24.98;;
67889;SDS011;54685;52.082;5.426;2022-08-19T11:51:35;32.17;;;25.23;;
67889;SDS011;54685;52.082;5.426;2022-08-19T11:54:03;34.15;;;26.73;;
67889;SDS011;54685;52.082;5.426;2022-08-19T11:56:32;29.17;;;24.30;;
67889;SDS011;54685;52.082;5.426;2022-08-19T11:59:00;27.33;;;23.48;;
67889;SDS011;54685;52.082;5.426;2022-08-19T12:01:27;34.53;;;24.92;;
67889;SDS011;54685;52.082;5.426;2022-08-19T12:03:55;29.58;;;23.05;;
67889;SDS011;54685;52.082;5.426;2022-08-19T12:06:27;28.98;;;21.83;;
67889;SDS011;54685;52.082;5.426;2022-08-19T12:08:56;31.45;;;23.98;;
67889;SDS011;54685;52.082;5.426;2022-08-19T12:11:26;30.00;;;21.95;;
67889;SDS011;54685;52.082;5.426;2022-08-19T12:13:56;28.65;;;23.77;;
67889;SDS011;54685;52.082;5.426;2022-08-19T12:16:25;26.52;;;20.42;;
67889;SDS011;54685;52.082;5.426;2022-08-19T12:18:54;29.23;;;23.52;;
67889;SDS011;54685;52.082;5.426;2022-08-19T12:21:23;29.80;;;24.55;;
67889;SDS011;54685;52.082;5.426;2022-08-19T12:23:54;24.63;;;20.98;;
67889;SDS011;54685;52.082;5.426;2022-08-19T12:26:23;28.55;;;20.88;;
67889;SDS011;54685;52.082;5.426;2022-08-19T12:28:51;28.52;;;21.77;;
67889;SDS011;54685;52.082;5.426;2022-08-19T12:31:18;26.15;;;21.60;;
67889;SDS011;54685;52.082;5.426;2022-08-19T12:33:46;25.08;;;21.33;;
67889;SDS011;54685;52.082;5.426;2022-08-19T12:36:14;30.95;;;20.83;;
67889;SDS011;54685;52.082;5.426;2022-08-19T12:38:41;25.30;;;18.33;;
67889;SDS011;54685;52.082;5.426;2022-08-19T12:41:12;21.20;;;18.17;;
67889;SDS011;54685;52.082;5.426;2022-08-19T12:43:41;21.90;;;16.85;;
67889;SDS011;54685;52.082;5.426;2022-08-19T12:46:09;20.52;;;16.58;;
67889;SDS011;54685;52.082;5.426;2022-08-19T12:48:38;17.88;;;14.88;;
67889;SDS011;54685;52.082;5.426;2022-08-19T12:51:09;22.27;;;15.38;;
67889;SDS011;54685;52.082;5.426;2022-08-19T12:53:43;19.35;;;13.45;;
67889;SDS011;54685;52.082;5.426;2022-08-19T12:56:11;24.30;;;15.60;;
67889;SDS011;54685;52.082;5.426;2022-08-19T12:58:41;19.73;;;14.05;;
67889;SDS011;54685;52.082;5.426;2022-08-19T13:01:15;15.65;;;12.00;;
67889;SDS011;54685;52.082;5.426;2022-08-19T13:03:48;17.33;;;13.32;;
67889;SDS011;54685;52.082;5.426;2022-08-19T13:06:16;13.38;;;11.30;;
67889;SDS011;54685;52.082;5.426;2022-08-19T13:08:45;17.70;;;12.48;;
67889;SDS011;54685;52.082;5.426;2022-08-19T13:11:13;16.63;;;12.77;;
67889;SDS011;54685;52.082;5.426;2022-08-19T13:13:44;13.40;;;10.30;;
67889;SDS011;54685;52.082;5.426;2022-08-19T13:16:15;15.48;;;9.82;;
67889;SDS011;54685;52.082;5.426;2022-08-19T13:18:44;16.92;;;10.07;;
67889;SDS011;54685;52.082;5.426;2022-08-19T13:21:13;16.30;;;9.10;;
67889;SDS011;54685;52.082;5.426;2022-08-19T13:23:41;13.50;;;9.30;;
67889;SDS011;54685;52.082;5.426;2022-08-19T13:26:08;11.80;;;9.55;;
67889;SDS011;54685;52.082;5.426;2022-08-19T13:28:37;15.23;;;11.20;;
67889;SDS011;54685;52.082;5.426;2022-08-19T13:31:24;12.20;;;9.35;;
67889;SDS011;54685;52.082;5.426;2022-08-19T13:34:10;15.25;;;12.65;;
67889;SDS011;54685;52.082;5.426;2022-08-19T13:36:38;15.65;;;11.18;;
67889;SDS011;54685;52.082;5.426;2022-08-19T13:39:05;15.23;;;12.15;;
67889;SDS011;54685;52.082;5.426;2022-08-19T13:41:36;16.60;;;11.98;;
67889;SDS011;54685;52.082;5.426;2022-08-19T13:44:04;18.02;;;12.95;;
67889;SDS011;54685;52.082;5.426;2022-08-19T13:46:32;16.85;;;11.10;;
67889;SDS011;54685;52.082;5.426;2022-08-19T13:48:59;12.85;;;9.88;;
67889;SDS011;54685;52.082;5.426;2022-08-19T13:51:26;15.43;;;10.73;;
67889;SDS011;54685;52.082;5.426;2022-08-19T13:53:53;20.98;;;13.27;;
67889;SDS011;54685;52.082;5.426;2022-08-19T13:56:21;42.17;;;16.05;;
67889;SDS011;54685;52.082;5.426;2022-08-19T13:58:51;23.73;;;14.90;;
67889;SDS011;54685;52.082;5.426;2022-08-19T14:01:24;29.30;;;15.48;;
67889;SDS011;54685;52.082;5.426;2022-08-19T14:03:52;23.90;;;13.60;;
67889;SDS011;54685;52.082;5.426;2022-08-19T14:06:19;21.55;;;14.60;;
67889;SDS011;54685;52.082;5.426;2022-08-19T14:08:56;18.35;;;14.57;;
67889;SDS011;54685;52.082;5.426;2022-08-19T14:11:25;17.95;;;12.85;;
67889;SDS011;54685;52.082;5.426;2022-08-19T14:13:52;14.35;;;10.23;;
67889;SDS011;54685;52.082;5.426;2022-08-19T14:16:19;14.07;;;10.95;;
67889;SDS011;54685;52.082;5.426;2022-08-19T14:18:47;12.18;;;10.52;;
67889;SDS011;54685;52.082;5.426;2022-08-19T14:21:15;13.00;;;10.32;;
67889;SDS011;54685;52.082;5.426;2022-08-19T14:23:43;12.45;;;8.23;;
67889;SDS011;54685;52.082;5.426;2022-08-19T14:26:37;10.10;;;8.80;;
67889;SDS011;54685;52.082;5.426;2022-08-19T14:29:04;8.45;;;7.50;;
67889;SDS011;54685;52.082;5.426;2022-08-19T14:31:43;8.75;;;7.80;;
67889;SDS011;54685;52.082;5.426;2022-08-19T14:34:10;9.60;;;8.30;;
67889;SDS011;54685;52.082;5.426;2022-08-19T14:36:38;9.93;;;7.35;;
67889;SDS011;54685;52.082;5.426;2022-08-19T14:39:11;8.75;;;7.82;;
67889;SDS011;54685;52.082;5.426;2022-08-19T14:41:39;9.90;;;8.60;;
67889;SDS011;54685;52.082;5.426;2022-08-19T14:44:08;10.18;;;8.93;;
67889;SDS011;54685;52.082;5.426;2022-08-19T14:46:38;9.00;;;8.20;;
67889;SDS011;54685;52.082;5.426;2022-08-19T14:49:14;8.50;;;7.68;;
67889;SDS011;54685;52.082;5.426;2022-08-19T14:51:41;8.10;;;7.40;;
67889;SDS011;54685;52.082;5.426;2022-08-19T14:54:08;9.70;;;8.48;;
67889;SDS011;54685;52.082;5.426;2022-08-19T14:56:35;8.23;;;7.07;;
67889;SDS011;54685;52.082;5.426;2022-08-19T14:59:02;6.57;;;5.97;;
67889;SDS011;54685;52.082;5.426;2022-08-19T15:01:32;5.90;;;5.03;;
67889;SDS011;54685;52.082;5.426;2022-08-19T15:03:59;6.32;;;5.72;;
67889;SDS011;54685;52.082;5.426;2022-08-19T15:06:26;7.90;;;7.20;;
67889;SDS011;54685;52.082;5.426;2022-08-19T15:08:53;7.13;;;6.40;;
67889;SDS011;54685;52.082;5.426;2022-08-19T15:11:22;8.77;;;7.40;;
67889;SDS011;54685;52.082;5.426;2022-08-19T15:13:50;6.82;;;5.88;;